sensor_id;sensor_type;location;lat;lon;timestamp;P1;durP1;ratioP1;P2;durP2;ratioP2
5343;SDS011;2694;48.950;8.970;2022-08-01T00:01:37;3.50;;;1.33;;
5343;SDS011;2694;48.950;8.970;2022-08-01T00:04:04;1.90;;;1.23;;
5343;SDS011;2694;48.950;8.970;2022-08-01T00:06:32;3.17;;;1.15;;
5343;SDS011;2694;48.950;8.970;2022-08-01T00:08:59;3.20;;;1.38;;
5343;SDS011;2694;48.950;8.970;2022-08-01T00:11:26;5.38;;;1.38;;
5343;SDS011;2694;48.950;8.970;2022-08-01T00:13:53;1.73;;;1.25;;
5343;SDS011;2694;48.950;8.970;2022-08-01T00:16:21;1.50;;;1.10;;
5343;SDS011;2694;48.950;8.970;2022-08-01T00:18:48;2.38;;;1.20;;
5343;SDS011;2694;48.950;8.970;2022-08-01T00:21:15;2.05;;;1.30;;
5343;SDS011;2694;48.950;8.970;2022-08-01T00:23:44;3.60;;;1.30;;
5343;SDS011;2694;48.950;8.970;2022-08-01T00:26:12;1.60;;;1.20;;
5343;SDS011;2694;48.950;8.970;2022-08-01T00:28:39;2.85;;;1.42;;
5343;SDS011;2694;48.950;8.970;2022-08-01T00:31:06;1.80;;;1.40;;
5343;SDS011;2694;48.950;8.970;2022-08-01T00:33:33;2.10;;;1.70;;
5343;SDS011;2694;48.950;8.970;2022-08-01T00:35:59;4.38;;;1.50;;
5343;SDS011;2694;48.950;8.970;2022-08-01T00:38:26;1.90;;;1.30;;
5343;SDS011;2694;48.950;8.970;2022-08-01T00:40:55;3.03;;;1.27;;
5343;SDS011;2694;48.950;8.970;2022-08-01T00:43:22;1.95;;;1.40;;
5343;SDS011;2694;48.950;8.970;2022-08-01T00:45:49;2.65;;;1.65;;
5343;SDS011;2694;48.950;8.970;2022-08-01T00:48:16;4.60;;;1.67;;
5343;SDS011;2694;48.950;8.970;2022-08-01T00:50:43;2.85;;;1.25;;
5343;SDS011;2694;48.950;8.970;2022-08-01T00:53:11;1.73;;;1.20;;
5343;SDS011;2694;48.950;8.970;2022-08-01T00:55:38;3.10;;;1.30;;
5343;SDS011;2694;48.950;8.970;2022-08-01T00:58:06;2.47;;;1.60;;
5343;SDS011;2694;48.950;8.970;2022-08-01T01:00:34;5.30;;;1.30;;
5343;SDS011;2694;48.950;8.970;2022-08-01T01:03:02;2.05;;;1.30;;
5343;SDS011;2694;48.950;8.970;2022-08-01T01:05:29;2.50;;;1.52;;
5343;SDS011;2694;48.950;8.970;2022-08-01T01:08:02;4.10;;;1.48;;
5343;SDS011;2694;48.950;8.970;2022-08-01T01:10:35;2.20;;;1.27;;
5343;SDS011;2694;48.950;8.970;2022-08-01T01:13:09;2.28;;;1.38;;
5343;SDS011;2694;48.950;8.970;2022-08-01T01:15:39;2.05;;;1.48;;
5343;SDS011;2694;48.950;8.970;2022-08-01T01:18:12;4.75;;;1.60;;
5343;SDS011;2694;48.950;8.970;2022-08-01T01:20:44;3.30;;;1.55;;
5343;SDS011;2694;48.950;8.970;2022-08-01T01:23:20;2.60;;;1.63;;
5343;SDS011;2694;48.950;8.970;2022-08-01T01:25:54;2.22;;;1.20;;
5343;SDS011;2694;48.950;8.970;2022-08-01T01:28:34;2.40;;;1.60;;
5343;SDS011;2694;48.950;8.970;2022-08-01T01:31:08;2.50;;;1.65;;
5343;SDS011;2694;48.950;8.970;2022-08-01T01:33:39;4.38;;;1.42;;
5343;SDS011;2694;48.950;8.970;2022-08-01T01:36:08;1.90;;;1.30;;
5343;SDS011;2694;48.950;8.970;2022-08-01T01:38:39;2.40;;;1.40;;
5343;SDS011;2694;48.950;8.970;2022-08-01T01:41:08;2.47;;;1.40;;
5343;SDS011;2694;48.950;8.970;2022-08-01T01:43:39;3.50;;;1.30;;
5343;SDS011;2694;48.950;8.970;2022-08-01T01:46:06;2.55;;;1.50;;
5343;SDS011;2694;48.950;8.970;2022-08-01T01:48:37;5.03;;;1.70;;
5343;SDS011;2694;48.950;8.970;2022-08-01T01:51:06;1.85;;;1.33;;
5343;SDS011;2694;48.950;8.970;2022-08-01T01:53:34;2.17;;;1.40;;
5343;SDS011;2694;48.950;8.970;2022-08-01T01:56:02;2.50;;;1.80;;
5343;SDS011;2694;48.950;8.970;2022-08-01T01:58:30;2.63;;;1.70;;
5343;SDS011;2694;48.950;8.970;2022-08-01T02:00:59;2.40;;;1.70;;
5343;SDS011;2694;48.950;8.970;2022-08-01T02:03:29;2.60;;;1.50;;
5343;SDS011;2694;48.950;8.970;2022-08-01T02:05:57;2.92;;;1.40;;
5343;SDS011;2694;48.950;8.970;2022-08-01T02:08:25;3.33;;;2.08;;
5343;SDS011;2694;48.950;8.970;2022-08-01T02:10:53;3.67;;;2.23;;
5343;SDS011;2694;48.950;8.970;2022-08-01T02:13:48;3.38;;;1.50;;
5343;SDS011;2694;48.950;8.970;2022-08-01T02:16:20;2.30;;;1.60;;
5343;SDS011;2694;48.950;8.970;2022-08-01T02:18:51;3.42;;;2.17;;
5343;SDS011;2694;48.950;8.970;2022-08-01T02:21:19;2.95;;;1.60;;
5343;SDS011;2694;48.950;8.970;2022-08-01T02:23:50;3.50;;;1.70;;
5343;SDS011;2694;48.950;8.970;2022-08-01T02:26:18;2.50;;;1.70;;
5343;SDS011;2694;48.950;8.970;2022-08-01T02:28:49;3.07;;;1.70;;
5343;SDS011;2694;48.950;8.970;2022-08-01T02:31:19;2.13;;;1.55;;
5343;SDS011;2694;48.950;8.970;2022-08-01T02:33:52;4.25;;;1.60;;
5343;SDS011;2694;48.950;8.970;2022-08-01T02:36:23;2.33;;;1.60;;
5343;SDS011;2694;48.950;8.970;2022-08-01T02:38:54;3.20;;;1.77;;
5343;SDS011;2694;48.950;8.970;2022-08-01T02:41:23;3.30;;;1.52;;
5343;SDS011;2694;48.950;8.970;2022-08-01T02:43:52;4.13;;;1.67;;
5343;SDS011;2694;48.950;8.970;2022-08-01T02:46:24;3.63;;;2.05;;
5343;SDS011;2694;48.950;8.970;2022-08-01T02:48:58;6.05;;;2.95;;
5343;SDS011;2694;48.950;8.970;2022-08-01T02:51:28;4.20;;;2.60;;
5343;SDS011;2694;48.950;8.970;2022-08-01T02:53:57;3.88;;;2.10;;
5343;SDS011;2694;48.950;8.970;2022-08-01T02:56:27;3.10;;;1.90;;
5343;SDS011;2694;48.950;8.970;2022-08-01T02:59:01;2.83;;;2.20;;
5343;SDS011;2694;48.950;8.970;2022-08-01T03:01:31;2.80;;;2.13;;
5343;SDS011;2694;48.950;8.970;2022-08-01T03:04:02;7.90;;;2.20;;
5343;SDS011;2694;48.950;8.970;2022-08-01T03:06:29;3.53;;;1.98;;
5343;SDS011;2694;48.950;8.970;2022-08-01T03:08:57;3.08;;;1.90;;
5343;SDS011;2694;48.950;8.970;2022-08-01T03:11:25;2.00;;;1.70;;
5343;SDS011;2694;48.950;8.970;2022-08-01T03:13:53;2.20;;;1.80;;
5343;SDS011;2694;48.950;8.970;2022-08-01T03:16:22;2.20;;;1.63;;
5343;SDS011;2694;48.950;8.970;2022-08-01T03:18:52;9.10;;;4.35;;
5343;SDS011;2694;48.950;8.970;2022-08-01T03:21:21;6.68;;;4.90;;
5343;SDS011;2694;48.950;8.970;2022-08-01T03:23:50;5.25;;;2.75;;
5343;SDS011;2694;48.950;8.970;2022-08-01T03:26:22;4.00;;;2.60;;
5343;SDS011;2694;48.950;8.970;2022-08-01T03:28:50;3.95;;;2.35;;
5343;SDS011;2694;48.950;8.970;2022-08-01T03:31:21;3.20;;;2.47;;
5343;SDS011;2694;48.950;8.970;2022-08-01T03:33:50;3.80;;;2.30;;
5343;SDS011;2694;48.950;8.970;2022-08-01T03:36:17;3.38;;;2.30;;
5343;SDS011;2694;48.950;8.970;2022-08-01T03:38:52;5.78;;;2.22;;
5343;SDS011;2694;48.950;8.970;2022-08-01T03:41:22;2.58;;;2.00;;
5343;SDS011;2694;48.950;8.970;2022-08-01T03:44:03;2.90;;;1.95;;
5343;SDS011;2694;48.950;8.970;2022-08-01T03:46:36;3.78;;;2.10;;
5343;SDS011;2694;48.950;8.970;2022-08-01T03:49:11;3.88;;;2.10;;
5343;SDS011;2694;48.950;8.970;2022-08-01T03:51:42;2.90;;;2.00;;
5343;SDS011;2694;48.950;8.970;2022-08-01T03:54:13;3.30;;;1.80;;
5343;SDS011;2694;48.950;8.970;2022-08-01T03:56:43;3.20;;;1.80;;
5343;SDS011;2694;48.950;8.970;2022-08-01T03:59:12;3.33;;;1.75;;
5343;SDS011;2694;48.950;8.970;2022-08-01T04:01:40;3.67;;;2.00;;
5343;SDS011;2694;48.950;8.970;2022-08-01T04:04:07;2.97;;;1.90;;
5343;SDS011;2694;48.950;8.970;2022-08-01T04:06:37;3.58;;;1.67;;
5343;SDS011;2694;48.950;8.970;2022-08-01T04:09:06;3.22;;;1.90;;
5343;SDS011;2694;48.950;8.970;2022-08-01T04:11:33;3.35;;;2.10;;
5343;SDS011;2694;48.950;8.970;2022-08-01T04:14:00;2.45;;;1.75;;
5343;SDS011;2694;48.950;8.970;2022-08-01T04:16:28;3.80;;;1.90;;
5343;SDS011;2694;48.950;8.970;2022-08-01T04:18:55;4.18;;;1.75;;
5343;SDS011;2694;48.950;8.970;2022-08-01T04:21:23;2.67;;;2.10;;
5343;SDS011;2694;48.950;8.970;2022-08-01T04:23:52;3.70;;;2.00;;
5343;SDS011;2694;48.950;8.970;2022-08-01T04:26:23;3.85;;;2.20;;
5343;SDS011;2694;48.950;8.970;2022-08-01T04:28:51;2.08;;;1.80;;
5343;SDS011;2694;48.950;8.970;2022-08-01T04:31:20;7.28;;;2.00;;
5343;SDS011;2694;48.950;8.970;2022-08-01T04:33:51;3.00;;;1.80;;
5343;SDS011;2694;48.950;8.970;2022-08-01T04:36:22;3.40;;;2.00;;
5343;SDS011;2694;48.950;8.970;2022-08-01T04:38:50;4.80;;;2.20;;
5343;SDS011;2694;48.950;8.970;2022-08-01T04:41:23;2.75;;;1.92;;
5343;SDS011;2694;48.950;8.970;2022-08-01T04:43:50;2.90;;;1.90;;
5343;SDS011;2694;48.950;8.970;2022-08-01T04:46:19;2.50;;;2.10;;
5343;SDS011;2694;48.950;8.970;2022-08-01T04:48:46;2.90;;;1.98;;
5343;SDS011;2694;48.950;8.970;2022-08-01T04:51:14;1.92;;;1.70;;
5343;SDS011;2694;48.950;8.970;2022-08-01T04:53:42;3.40;;;2.17;;
5343;SDS011;2694;48.950;8.970;2022-08-01T04:56:11;2.95;;;1.90;;
5343;SDS011;2694;48.950;8.970;2022-08-01T04:58:40;3.78;;;1.90;;
5343;SDS011;2694;48.950;8.970;2022-08-01T05:01:07;3.83;;;2.20;;
5343;SDS011;2694;48.950;8.970;2022-08-01T05:03:35;3.90;;;1.85;;
5343;SDS011;2694;48.950;8.970;2022-08-01T05:06:01;3.97;;;1.90;;
5343;SDS011;2694;48.950;8.970;2022-08-01T05:08:29;4.85;;;1.95;;
5343;SDS011;2694;48.950;8.970;2022-08-01T05:10:56;3.40;;;1.48;;
5343;SDS011;2694;48.950;8.970;2022-08-01T05:13:23;4.22;;;2.08;;
5343;SDS011;2694;48.950;8.970;2022-08-01T05:15:52;3.43;;;1.80;;
5343;SDS011;2694;48.950;8.970;2022-08-01T05:18:18;2.63;;;1.77;;
5343;SDS011;2694;48.950;8.970;2022-08-01T05:20:46;3.10;;;1.80;;
5343;SDS011;2694;48.950;8.970;2022-08-01T05:23:13;2.83;;;1.73;;
5343;SDS011;2694;48.950;8.970;2022-08-01T05:25:40;4.03;;;1.90;;
5343;SDS011;2694;48.950;8.970;2022-08-01T05:28:07;2.00;;;1.70;;
5343;SDS011;2694;48.950;8.970;2022-08-01T05:30:34;3.00;;;1.90;;
5343;SDS011;2694;48.950;8.970;2022-08-01T05:33:03;2.30;;;2.05;;
5343;SDS011;2694;48.950;8.970;2022-08-01T05:35:30;2.47;;;1.70;;
5343;SDS011;2694;48.950;8.970;2022-08-01T05:37:57;4.57;;;2.33;;
5343;SDS011;2694;48.950;8.970;2022-08-01T05:40:24;3.10;;;1.60;;
5343;SDS011;2694;48.950;8.970;2022-08-01T05:42:51;5.85;;;1.90;;
5343;SDS011;2694;48.950;8.970;2022-08-01T05:45:18;2.30;;;1.80;;
5343;SDS011;2694;48.950;8.970;2022-08-01T05:47:45;6.20;;;1.70;;
5343;SDS011;2694;48.950;8.970;2022-08-01T05:50:13;4.90;;;2.07;;
5343;SDS011;2694;48.950;8.970;2022-08-01T05:52:40;2.33;;;1.90;;
5343;SDS011;2694;48.950;8.970;2022-08-01T05:55:07;2.45;;;1.40;;
5343;SDS011;2694;48.950;8.970;2022-08-01T05:57:34;5.53;;;1.80;;
5343;SDS011;2694;48.950;8.970;2022-08-01T06:00:01;6.40;;;2.00;;
5343;SDS011;2694;48.950;8.970;2022-08-01T06:02:29;6.50;;;1.80;;
5343;SDS011;2694;48.950;8.970;2022-08-01T06:04:55;3.28;;;1.48;;
5343;SDS011;2694;48.950;8.970;2022-08-01T06:07:24;3.10;;;1.80;;
5343;SDS011;2694;48.950;8.970;2022-08-01T06:09:51;3.55;;;1.40;;
5343;SDS011;2694;48.950;8.970;2022-08-01T06:12:18;3.70;;;1.70;;
5343;SDS011;2694;48.950;8.970;2022-08-01T06:14:46;7.50;;;2.00;;
5343;SDS011;2694;48.950;8.970;2022-08-01T06:17:13;14.73;;;1.90;;
5343;SDS011;2694;48.950;8.970;2022-08-01T06:19:40;11.63;;;2.97;;
5343;SDS011;2694;48.950;8.970;2022-08-01T06:22:07;11.77;;;1.90;;
5343;SDS011;2694;48.950;8.970;2022-08-01T06:24:36;3.45;;;1.20;;
5343;SDS011;2694;48.950;8.970;2022-08-01T06:27:02;6.30;;;1.55;;
5343;SDS011;2694;48.950;8.970;2022-08-01T06:29:29;5.75;;;1.40;;
5343;SDS011;2694;48.950;8.970;2022-08-01T06:31:57;2.03;;;1.20;;
5343;SDS011;2694;48.950;8.970;2022-08-01T06:34:24;4.30;;;1.30;;
5343;SDS011;2694;48.950;8.970;2022-08-01T06:36:50;3.85;;;1.10;;
5343;SDS011;2694;48.950;8.970;2022-08-01T06:39:17;2.95;;;1.40;;
5343;SDS011;2694;48.950;8.970;2022-08-01T06:41:46;3.50;;;1.30;;
5343;SDS011;2694;48.950;8.970;2022-08-01T06:44:13;4.72;;;1.42;;
5343;SDS011;2694;48.950;8.970;2022-08-01T06:46:40;1.92;;;0.90;;
5343;SDS011;2694;48.950;8.970;2022-08-01T06:49:07;2.33;;;1.20;;
5343;SDS011;2694;48.950;8.970;2022-08-01T06:51:34;1.85;;;1.30;;
5343;SDS011;2694;48.950;8.970;2022-08-01T06:54:00;2.40;;;1.00;;
5343;SDS011;2694;48.950;8.970;2022-08-01T06:56:28;4.70;;;1.27;;
5343;SDS011;2694;48.950;8.970;2022-08-01T06:58:56;2.03;;;1.30;;
5343;SDS011;2694;48.950;8.970;2022-08-01T07:01:25;2.17;;;1.00;;
5343;SDS011;2694;48.950;8.970;2022-08-01T07:03:53;3.72;;;1.17;;
5343;SDS011;2694;48.950;8.970;2022-08-01T07:06:19;2.33;;;1.00;;
5343;SDS011;2694;48.950;8.970;2022-08-01T07:08:47;2.40;;;1.25;;
5343;SDS011;2694;48.950;8.970;2022-08-01T07:11:14;1.80;;;1.10;;
5343;SDS011;2694;48.950;8.970;2022-08-01T07:13:41;2.10;;;1.20;;
5343;SDS011;2694;48.950;8.970;2022-08-01T07:16:09;3.38;;;1.00;;
5343;SDS011;2694;48.950;8.970;2022-08-01T07:18:36;2.07;;;1.20;;
5343;SDS011;2694;48.950;8.970;2022-08-01T07:21:03;6.65;;;1.20;;
5343;SDS011;2694;48.950;8.970;2022-08-01T07:23:30;1.13;;;0.80;;
5343;SDS011;2694;48.950;8.970;2022-08-01T07:25:57;2.40;;;1.23;;
5343;SDS011;2694;48.950;8.970;2022-08-01T07:28:24;4.27;;;1.10;;
5343;SDS011;2694;48.950;8.970;2022-08-01T07:30:51;1.60;;;0.80;;
5343;SDS011;2694;48.950;8.970;2022-08-01T07:33:19;2.20;;;1.23;;
5343;SDS011;2694;48.950;8.970;2022-08-01T07:35:47;1.20;;;0.77;;
5343;SDS011;2694;48.950;8.970;2022-08-01T07:38:14;1.65;;;0.85;;
5343;SDS011;2694;48.950;8.970;2022-08-01T07:40:41;1.08;;;0.70;;
5343;SDS011;2694;48.950;8.970;2022-08-01T07:43:09;1.70;;;1.00;;
5343;SDS011;2694;48.950;8.970;2022-08-01T07:45:36;3.70;;;1.00;;
5343;SDS011;2694;48.950;8.970;2022-08-01T07:48:03;1.38;;;0.77;;
5343;SDS011;2694;48.950;8.970;2022-08-01T07:50:32;2.73;;;1.20;;
5343;SDS011;2694;48.950;8.970;2022-08-01T07:53:00;2.40;;;1.00;;
5343;SDS011;2694;48.950;8.970;2022-08-01T07:55:27;1.17;;;1.00;;
5343;SDS011;2694;48.950;8.970;2022-08-01T07:57:54;2.90;;;1.10;;
5343;SDS011;2694;48.950;8.970;2022-08-01T08:00:21;2.63;;;1.00;;
5343;SDS011;2694;48.950;8.970;2022-08-01T08:02:48;5.00;;;1.05;;
5343;SDS011;2694;48.950;8.970;2022-08-01T08:05:14;1.10;;;0.85;;
5343;SDS011;2694;48.950;8.970;2022-08-01T08:07:42;1.08;;;0.70;;
5343;SDS011;2694;48.950;8.970;2022-08-01T08:10:09;2.40;;;1.00;;
5343;SDS011;2694;48.950;8.970;2022-08-01T08:12:36;1.63;;;1.00;;
5343;SDS011;2694;48.950;8.970;2022-08-01T08:15:03;4.70;;;0.90;;
5343;SDS011;2694;48.950;8.970;2022-08-01T08:17:31;1.45;;;1.00;;
5343;SDS011;2694;48.950;8.970;2022-08-01T08:19:58;2.15;;;1.00;;
5343;SDS011;2694;48.950;8.970;2022-08-01T08:22:25;2.20;;;0.68;;
5343;SDS011;2694;48.950;8.970;2022-08-01T08:24:53;3.57;;;0.80;;
5343;SDS011;2694;48.950;8.970;2022-08-01T08:27:20;4.67;;;0.90;;
5343;SDS011;2694;48.950;8.970;2022-08-01T08:29:47;1.38;;;1.00;;
5343;SDS011;2694;48.950;8.970;2022-08-01T08:32:14;3.90;;;1.02;;
5343;SDS011;2694;48.950;8.970;2022-08-01T08:34:41;2.05;;;1.10;;
5343;SDS011;2694;48.950;8.970;2022-08-01T08:37:08;2.70;;;1.30;;
5343;SDS011;2694;48.950;8.970;2022-08-01T08:39:35;4.10;;;2.20;;
5343;SDS011;2694;48.950;8.970;2022-08-01T08:42:05;3.60;;;2.30;;
5343;SDS011;2694;48.950;8.970;2022-08-01T08:44:33;6.30;;;3.60;;
5343;SDS011;2694;48.950;8.970;2022-08-01T08:47:00;5.75;;;3.50;;
5343;SDS011;2694;48.950;8.970;2022-08-01T08:49:30;3.88;;;2.80;;
5343;SDS011;2694;48.950;8.970;2022-08-01T08:51:57;4.47;;;2.40;;
5343;SDS011;2694;48.950;8.970;2022-08-01T08:54:25;4.80;;;2.50;;
5343;SDS011;2694;48.950;8.970;2022-08-01T08:56:54;5.55;;;2.40;;
5343;SDS011;2694;48.950;8.970;2022-08-01T08:59:23;3.47;;;1.90;;
5343;SDS011;2694;48.950;8.970;2022-08-01T09:01:51;5.90;;;2.30;;
5343;SDS011;2694;48.950;8.970;2022-08-01T09:04:18;3.72;;;2.30;;
5343;SDS011;2694;48.950;8.970;2022-08-01T09:06:47;5.40;;;2.20;;
5343;SDS011;2694;48.950;8.970;2022-08-01T09:09:14;2.25;;;1.63;;
5343;SDS011;2694;48.950;8.970;2022-08-01T09:11:41;3.92;;;1.60;;
5343;SDS011;2694;48.950;8.970;2022-08-01T09:14:09;3.28;;;1.90;;
5343;SDS011;2694;48.950;8.970;2022-08-01T09:16:40;7.50;;;1.80;;
5343;SDS011;2694;48.950;8.970;2022-08-01T09:19:09;2.43;;;1.50;;
5343;SDS011;2694;48.950;8.970;2022-08-01T09:21:37;2.10;;;1.30;;
5343;SDS011;2694;48.950;8.970;2022-08-01T09:24:12;3.08;;;1.48;;
5343;SDS011;2694;48.950;8.970;2022-08-01T09:26:40;1.98;;;1.30;;
5343;SDS011;2694;48.950;8.970;2022-08-01T09:29:08;1.60;;;1.40;;
5343;SDS011;2694;48.950;8.970;2022-08-01T09:31:44;8.15;;;2.00;;
5343;SDS011;2694;48.950;8.970;2022-08-01T09:34:12;1.90;;;1.50;;
5343;SDS011;2694;48.950;8.970;2022-08-01T09:36:44;5.50;;;1.52;;
5343;SDS011;2694;48.950;8.970;2022-08-01T09:39:16;9.27;;;1.70;;
5343;SDS011;2694;48.950;8.970;2022-08-01T09:41:44;1.30;;;1.20;;
5343;SDS011;2694;48.950;8.970;2022-08-01T09:44:11;2.95;;;1.20;;
5343;SDS011;2694;48.950;8.970;2022-08-01T09:46:49;2.30;;;1.20;;
5343;SDS011;2694;48.950;8.970;2022-08-01T09:49:27;2.08;;;1.30;;
5343;SDS011;2694;48.950;8.970;2022-08-01T09:51:55;2.75;;;1.40;;
5343;SDS011;2694;48.950;8.970;2022-08-01T09:54:30;3.03;;;1.40;;
5343;SDS011;2694;48.950;8.970;2022-08-01T09:57:11;2.00;;;1.40;;
5343;SDS011;2694;48.950;8.970;2022-08-01T09:59:40;1.60;;;1.33;;
5343;SDS011;2694;48.950;8.970;2022-08-01T10:02:09;2.80;;;1.20;;
5343;SDS011;2694;48.950;8.970;2022-08-01T10:04:46;2.90;;;1.20;;
5343;SDS011;2694;48.950;8.970;2022-08-01T10:07:15;2.55;;;1.60;;
5343;SDS011;2694;48.950;8.970;2022-08-01T10:09:42;1.27;;;1.00;;
5343;SDS011;2694;48.950;8.970;2022-08-01T10:12:10;1.30;;;1.00;;
5343;SDS011;2694;48.950;8.970;2022-08-01T10:14:38;2.30;;;1.40;;
5343;SDS011;2694;48.950;8.970;2022-08-01T10:17:06;2.17;;;1.30;;
5343;SDS011;2694;48.950;8.970;2022-08-01T10:19:36;2.10;;;1.25;;
5343;SDS011;2694;48.950;8.970;2022-08-01T10:22:07;4.28;;;1.40;;
5343;SDS011;2694;48.950;8.970;2022-08-01T10:24:36;1.95;;;1.38;;
5343;SDS011;2694;48.950;8.970;2022-08-01T10:27:04;2.50;;;1.00;;
5343;SDS011;2694;48.950;8.970;2022-08-01T10:29:34;1.60;;;1.30;;
5343;SDS011;2694;48.950;8.970;2022-08-01T10:32:06;3.33;;;1.10;;
5343;SDS011;2694;48.950;8.970;2022-08-01T10:34:34;2.78;;;1.10;;
5343;SDS011;2694;48.950;8.970;2022-08-01T10:37:03;5.22;;;1.48;;
5343;SDS011;2694;48.950;8.970;2022-08-01T10:39:30;3.10;;;1.10;;
5343;SDS011;2694;48.950;8.970;2022-08-01T10:41:58;1.35;;;1.20;;
5343;SDS011;2694;48.950;8.970;2022-08-01T10:44:25;1.30;;;1.00;;
5343;SDS011;2694;48.950;8.970;2022-08-01T10:46:55;2.55;;;1.00;;
5343;SDS011;2694;48.950;8.970;2022-08-01T10:49:29;3.60;;;1.40;;
5343;SDS011;2694;48.950;8.970;2022-08-01T10:52:01;1.30;;;1.20;;
5343;SDS011;2694;48.950;8.970;2022-08-01T10:54:29;1.67;;;1.00;;
5343;SDS011;2694;48.950;8.970;2022-08-01T10:57:04;1.10;;;0.80;;
5343;SDS011;2694;48.950;8.970;2022-08-01T10:59:32;2.15;;;1.00;;
5343;SDS011;2694;48.950;8.970;2022-08-01T11:02:00;1.63;;;1.10;;
5343;SDS011;2694;48.950;8.970;2022-08-01T11:04:32;1.80;;;1.20;;
5343;SDS011;2694;48.950;8.970;2022-08-01T11:07:08;2.70;;;1.05;;
5343;SDS011;2694;48.950;8.970;2022-08-01T11:09:42;4.18;;;1.25;;
5343;SDS011;2694;48.950;8.970;2022-08-01T11:12:10;1.23;;;0.80;;
5343;SDS011;2694;48.950;8.970;2022-08-01T11:17:49;1.30;;;0.80;;
5343;SDS011;2694;48.950;8.970;2022-08-01T11:20:17;2.83;;;0.95;;
5343;SDS011;2694;48.950;8.970;2022-08-01T11:26:09;2.40;;;1.00;;
5343;SDS011;2694;48.950;8.970;2022-08-01T11:28:40;2.90;;;0.90;;
5343;SDS011;2694;48.950;8.970;2022-08-01T11:31:25;1.77;;;1.33;;
5343;SDS011;2694;48.950;8.970;2022-08-01T11:33:53;6.80;;;1.02;;
5343;SDS011;2694;48.950;8.970;2022-08-01T11:36:20;2.33;;;1.00;;
5343;SDS011;2694;48.950;8.970;2022-08-01T11:38:48;1.73;;;1.10;;
5343;SDS011;2694;48.950;8.970;2022-08-01T11:41:38;1.93;;;1.10;;
5343;SDS011;2694;48.950;8.970;2022-08-01T11:44:05;2.85;;;1.33;;
5343;SDS011;2694;48.950;8.970;2022-08-01T11:46:53;4.13;;;1.70;;
5343;SDS011;2694;48.950;8.970;2022-08-01T11:49:30;1.83;;;1.30;;
5343;SDS011;2694;48.950;8.970;2022-08-01T11:52:03;3.10;;;1.25;;
5343;SDS011;2694;48.950;8.970;2022-08-01T11:54:32;2.07;;;1.47;;
5343;SDS011;2694;48.950;8.970;2022-08-01T11:57:03;1.40;;;1.10;;
5343;SDS011;2694;48.950;8.970;2022-08-01T11:59:35;2.38;;;0.90;;
5343;SDS011;2694;48.950;8.970;2022-08-01T12:02:04;5.90;;;1.50;;
5343;SDS011;2694;48.950;8.970;2022-08-01T12:04:48;1.90;;;1.05;;
5343;SDS011;2694;48.950;8.970;2022-08-01T12:07:17;3.40;;;1.42;;
5343;SDS011;2694;48.950;8.970;2022-08-01T12:09:45;2.30;;;1.30;;
5343;SDS011;2694;48.950;8.970;2022-08-01T12:12:16;1.50;;;1.10;;
5343;SDS011;2694;48.950;8.970;2022-08-01T12:14:44;2.33;;;1.45;;
5343;SDS011;2694;48.950;8.970;2022-08-01T12:17:11;1.70;;;1.23;;
5343;SDS011;2694;48.950;8.970;2022-08-01T12:19:39;1.80;;;1.50;;
5343;SDS011;2694;48.950;8.970;2022-08-01T12:22:11;4.15;;;1.13;;
5343;SDS011;2694;48.950;8.970;2022-08-01T12:24:39;3.03;;;1.13;;
5343;SDS011;2694;48.950;8.970;2022-08-01T12:27:07;2.80;;;1.20;;
5343;SDS011;2694;48.950;8.970;2022-08-01T12:29:37;4.07;;;1.33;;
5343;SDS011;2694;48.950;8.970;2022-08-01T12:32:04;1.65;;;1.10;;
5343;SDS011;2694;48.950;8.970;2022-08-01T12:34:47;2.15;;;1.25;;
5343;SDS011;2694;48.950;8.970;2022-08-01T12:37:14;2.00;;;1.30;;
5343;SDS011;2694;48.950;8.970;2022-08-01T12:39:42;1.50;;;1.20;;
5343;SDS011;2694;48.950;8.970;2022-08-01T12:42:10;3.10;;;1.00;;
5343;SDS011;2694;48.950;8.970;2022-08-01T12:44:40;2.35;;;1.27;;
5343;SDS011;2694;48.950;8.970;2022-08-01T12:47:10;1.80;;;1.00;;
5343;SDS011;2694;48.950;8.970;2022-08-01T12:49:38;1.20;;;0.90;;
5343;SDS011;2694;48.950;8.970;2022-08-01T12:52:08;2.63;;;1.10;;
5343;SDS011;2694;48.950;8.970;2022-08-01T12:57:31;6.00;;;1.30;;
5343;SDS011;2694;48.950;8.970;2022-08-01T13:00:10;1.00;;;0.90;;
5343;SDS011;2694;48.950;8.970;2022-08-01T13:02:39;1.50;;;1.00;;
5343;SDS011;2694;48.950;8.970;2022-08-01T13:05:09;2.38;;;1.17;;
5343;SDS011;2694;48.950;8.970;2022-08-01T13:07:37;2.80;;;1.00;;
5343;SDS011;2694;48.950;8.970;2022-08-01T13:10:05;1.95;;;0.93;;
5343;SDS011;2694;48.950;8.970;2022-08-01T13:12:32;4.30;;;1.05;;
5343;SDS011;2694;48.950;8.970;2022-08-01T13:15:12;1.40;;;1.00;;
5343;SDS011;2694;48.950;8.970;2022-08-01T13:17:41;3.70;;;1.50;;
5343;SDS011;2694;48.950;8.970;2022-08-01T13:20:09;3.47;;;1.70;;
5343;SDS011;2694;48.950;8.970;2022-08-01T13:22:36;1.92;;;1.40;;
5343;SDS011;2694;48.950;8.970;2022-08-01T13:25:10;2.20;;;1.27;;
5343;SDS011;2694;48.950;8.970;2022-08-01T13:27:37;4.37;;;1.30;;
5343;SDS011;2694;48.950;8.970;2022-08-01T13:30:11;1.90;;;1.30;;
5343;SDS011;2694;48.950;8.970;2022-08-01T13:32:40;2.30;;;1.20;;
5343;SDS011;2694;48.950;8.970;2022-08-01T13:35:09;1.77;;;1.00;;
5343;SDS011;2694;48.950;8.970;2022-08-01T13:37:38;2.13;;;0.90;;
5343;SDS011;2694;48.950;8.970;2022-08-01T13:40:06;2.20;;;1.00;;
5343;SDS011;2694;48.950;8.970;2022-08-01T13:42:34;1.20;;;0.90;;
5343;SDS011;2694;48.950;8.970;2022-08-01T13:45:02;1.57;;;1.10;;
5343;SDS011;2694;48.950;8.970;2022-08-01T13:47:32;2.90;;;1.10;;
5343;SDS011;2694;48.950;8.970;2022-08-01T13:50:00;2.30;;;0.90;;
5343;SDS011;2694;48.950;8.970;2022-08-01T13:52:27;2.63;;;1.15;;
5343;SDS011;2694;48.950;8.970;2022-08-01T13:54:54;2.10;;;1.10;;
5343;SDS011;2694;48.950;8.970;2022-08-01T13:57:21;1.80;;;0.80;;
5343;SDS011;2694;48.950;8.970;2022-08-01T13:59:48;1.70;;;1.20;;
5343;SDS011;2694;48.950;8.970;2022-08-01T14:02:16;2.30;;;1.00;;
5343;SDS011;2694;48.950;8.970;2022-08-01T14:04:43;1.38;;;1.20;;
5343;SDS011;2694;48.950;8.970;2022-08-01T14:07:11;1.27;;;1.00;;
5343;SDS011;2694;48.950;8.970;2022-08-01T14:09:38;2.80;;;0.93;;
5343;SDS011;2694;48.950;8.970;2022-08-01T14:12:06;1.50;;;1.05;;
5343;SDS011;2694;48.950;8.970;2022-08-01T14:14:33;3.45;;;1.10;;
5343;SDS011;2694;48.950;8.970;2022-08-01T14:17:00;2.05;;;1.10;;
5343;SDS011;2694;48.950;8.970;2022-08-01T14:19:28;2.05;;;1.38;;
5343;SDS011;2694;48.950;8.970;2022-08-01T14:21:55;1.20;;;1.00;;
5343;SDS011;2694;48.950;8.970;2022-08-01T14:24:24;14.50;;;1.10;;
5343;SDS011;2694;48.950;8.970;2022-08-01T14:26:52;1.10;;;0.90;;
5343;SDS011;2694;48.950;8.970;2022-08-01T14:29:19;1.50;;;1.10;;
5343;SDS011;2694;48.950;8.970;2022-08-01T14:31:45;1.60;;;1.10;;
5343;SDS011;2694;48.950;8.970;2022-08-01T14:34:12;1.33;;;0.90;;
5343;SDS011;2694;48.950;8.970;2022-08-01T14:36:40;1.25;;;0.80;;
5343;SDS011;2694;48.950;8.970;2022-08-01T14:39:07;2.47;;;1.17;;
5343;SDS011;2694;48.950;8.970;2022-08-01T14:41:35;1.90;;;1.00;;
5343;SDS011;2694;48.950;8.970;2022-08-01T14:44:02;4.55;;;1.20;;
5343;SDS011;2694;48.950;8.970;2022-08-01T14:46:29;2.60;;;1.10;;
5343;SDS011;2694;48.950;8.970;2022-08-01T14:48:56;1.17;;;0.90;;
5343;SDS011;2694;48.950;8.970;2022-08-01T14:51:23;2.60;;;1.10;;
5343;SDS011;2694;48.950;8.970;2022-08-01T14:53:50;1.10;;;0.90;;
5343;SDS011;2694;48.950;8.970;2022-08-01T14:56:18;1.60;;;1.20;;
5343;SDS011;2694;48.950;8.970;2022-08-01T14:58:46;1.50;;;0.80;;
5343;SDS011;2694;48.950;8.970;2022-08-01T15:01:13;2.00;;;0.90;;
5343;SDS011;2694;48.950;8.970;2022-08-01T15:03:39;2.80;;;1.80;;
5343;SDS011;2694;48.950;8.970;2022-08-01T15:06:06;2.00;;;1.10;;
5343;SDS011;2694;48.950;8.970;2022-08-01T15:08:36;2.40;;;0.80;;
5343;SDS011;2694;48.950;8.970;2022-08-01T15:11:03;1.90;;;0.90;;
5343;SDS011;2694;48.950;8.970;2022-08-01T15:13:30;1.15;;;0.73;;
5343;SDS011;2694;48.950;8.970;2022-08-01T15:15:58;1.48;;;0.90;;
5343;SDS011;2694;48.950;8.970;2022-08-01T15:18:25;2.00;;;0.75;;
5343;SDS011;2694;48.950;8.970;2022-08-01T15:20:52;0.80;;;0.70;;
5343;SDS011;2694;48.950;8.970;2022-08-01T15:23:19;1.60;;;0.88;;
5343;SDS011;2694;48.950;8.970;2022-08-01T15:25:46;4.60;;;0.80;;
5343;SDS011;2694;48.950;8.970;2022-08-01T15:28:13;1.70;;;0.80;;
5343;SDS011;2694;48.950;8.970;2022-08-01T15:30:40;1.00;;;0.70;;
5343;SDS011;2694;48.950;8.970;2022-08-01T15:33:08;3.20;;;0.88;;
5343;SDS011;2694;48.950;8.970;2022-08-01T15:35:35;1.50;;;0.70;;